createdAt,value
2017-10-14T00:04:46.000Z,20.3
2017-10-14T00:14:46.000Z,20.4
2017-10-14T00:24:46.000Z,20.3
2017-10-14T00:34:46.000Z,20.4
2017-10-14T00:44:46.000Z,20.4
2017-10-14T00:54:46.000Z,20.3
2017-10-14T01:04:46.000Z,20.3
2017-10-14T01:14:46.000Z,20.3
2017-10-14T01:24:46.000Z,20.2
2017-10-14T01:34:46.000Z,20.3
2017-10-14T01:44:46.000Z,20.2
2017-10-14T01:54:46.000Z,20.3
2017-10-14T02:04:47.000Z,20.2
2017-10-14T02:14:47.000Z,20.3
2017-10-14T02:24:47.000Z,20.3
2017-10-14T02:34:47.000Z,20.2
2017-10-14T02:44:47.000Z,20.2
2017-10-14T02:54:47.000Z,20.2
2017-10-14T03:04:48.000Z,20.2
2017-10-14T03:14:47.000Z,20.1
2017-10-14T03:24:47.000Z,20.2
2017-10-14T03:34:47.000Z,20.2
2017-10-14T03:44:47.000Z,20.1
2017-10-14T03:54:47.000Z,20.1
2017-10-14T04:04:49.000Z,20.1
2017-10-14T04:14:47.000Z,20.1
2017-10-14T04:24:47.000Z,20.1
2017-10-14T04:34:47.000Z,19.9
2017-10-14T04:44:47.000Z,20
2017-10-14T04:54:47.000Z,20
2017-10-14T05:04:47.000Z,20
2017-10-14T05:14:47.000Z,20
2017-10-14T05:24:47.000Z,20
2017-10-14T05:34:47.000Z,20
2017-10-14T05:44:47.000Z,19.9
2017-10-14T05:54:47.000Z,19.9
2017-10-14T06:04:47.000Z,19.9
2017-10-14T06:14:47.000Z,19.9
2017-10-14T06:24:47.000Z,19.9
2017-10-14T06:34:47.000Z,19.8
2017-10-14T06:44:47.000Z,19.8
2017-10-14T06:54:47.000Z,19.8
2017-10-14T07:04:47.000Z,19.8
2017-10-14T07:14:47.000Z,19.8
2017-10-14T07:24:47.000Z,19.9
2017-10-14T07:34:47.000Z,19.9
2017-10-14T07:44:47.000Z,20
2017-10-14T07:54:47.000Z,20.1
2017-10-14T08:04:47.000Z,20.1
2017-10-14T08:14:47.000Z,20
2017-10-14T08:24:47.000Z,20.1
2017-10-14T08:34:47.000Z,20.4
2017-10-14T08:44:47.000Z,20.4
2017-10-14T08:54:48.000Z,20.4
2017-10-14T09:04:48.000Z,20.5
2017-10-14T09:14:48.000Z,20.6
2017-10-14T09:24:48.000Z,20.6
2017-10-14T09:34:48.000Z,20.6
2017-10-14T09:44:48.000Z,20.6
2017-10-14T09:54:48.000Z,20.6
2017-10-14T10:04:48.000Z,20.7
2017-10-14T10:14:48.000Z,20.7
2017-10-14T10:24:48.000Z,20.7
2017-10-14T10:34:48.000Z,20.6
2017-10-14T10:44:48.000Z,20.7
2017-10-14T10:54:48.000Z,20.8
2017-10-14T11:04:48.000Z,20.7
2017-10-14T11:14:48.000Z,20.8
2017-10-14T11:24:48.000Z,20.9
2017-10-14T11:34:48.000Z,20.8
2017-10-14T11:44:51.000Z,20.9
2017-10-14T11:54:48.000Z,20.9
2017-10-14T12:04:48.000Z,20.9
2017-10-14T12:14:48.000Z,20.9
2017-10-14T12:24:48.000Z,20.7
2017-10-14T12:34:48.000Z,20.9
2017-10-14T12:44:48.000Z,20.9
2017-10-14T12:54:48.000Z,20.9
2017-10-14T13:04:49.000Z,21
2017-10-14T13:14:48.000Z,21
2017-10-14T13:24:48.000Z,21
2017-10-14T13:34:48.000Z,20.9
2017-10-14T13:44:48.000Z,21.2
2017-10-14T13:54:48.000Z,21.5
2017-10-14T14:04:48.000Z,21.8
2017-10-14T14:14:48.000Z,21.5
2017-10-14T14:24:48.000Z,21.3
2017-10-14T14:34:48.000Z,21.3
2017-10-14T14:44:49.000Z,21.1
2017-10-14T14:54:49.000Z,21.2
2017-10-14T15:04:48.000Z,21.3
2017-10-14T15:14:48.000Z,21.3
2017-10-14T15:24:49.000Z,21.3
2017-10-14T15:34:51.000Z,21.3
2017-10-14T15:44:48.000Z,21.2
2017-10-14T15:54:48.000Z,21.2
2017-10-14T16:04:49.000Z,21.3
2017-10-14T16:14:49.000Z,21.3
2017-10-14T16:24:49.000Z,21.3
2017-10-14T16:34:49.000Z,21.3
2017-10-14T16:44:49.000Z,21.3
2017-10-14T16:54:50.000Z,21.3
2017-10-14T17:04:49.000Z,21.2
2017-10-14T17:14:49.000Z,21.3
2017-10-14T17:24:49.000Z,21.3
2017-10-14T17:34:49.000Z,21.3
2017-10-14T17:44:49.000Z,21.3
2017-10-14T17:54:49.000Z,21.3
2017-10-14T18:04:50.000Z,21.3
2017-10-14T18:14:49.000Z,21.3
2017-10-14T18:24:49.000Z,21.3
2017-10-14T18:34:49.000Z,21.3
2017-10-14T18:44:49.000Z,21.3
2017-10-14T18:54:49.000Z,21.3
2017-10-14T19:04:49.000Z,21.3
2017-10-14T19:14:49.000Z,21.3
2017-10-14T19:24:49.000Z,21.3
2017-10-14T19:34:49.000Z,21.3
2017-10-14T19:44:49.000Z,21.3
2017-10-14T19:54:49.000Z,21.3
2017-10-14T20:04:50.000Z,21.3
2017-10-14T20:14:49.000Z,21.3
2017-10-14T20:24:49.000Z,21.3
2017-10-14T20:34:49.000Z,21.3
2017-10-14T20:44:49.000Z,21.3
2017-10-14T20:54:49.000Z,21.3
2017-10-14T21:04:49.000Z,21.3
2017-10-14T21:14:49.000Z,21.3
2017-10-14T21:24:49.000Z,21.3
2017-10-14T21:34:49.000Z,21.2
2017-10-14T21:44:49.000Z,21.3
2017-10-14T21:54:49.000Z,21.4
2017-10-14T22:04:49.000Z,21.4
2017-10-14T22:14:49.000Z,21.3
2017-10-14T22:24:49.000Z,21.4
2017-10-14T22:34:49.000Z,21.5
2017-10-14T22:44:49.000Z,21.4
2017-10-14T22:54:50.000Z,21.5
2017-10-14T23:04:50.000Z,21.4
2017-10-14T23:14:50.000Z,21.4
2017-10-14T23:24:50.000Z,21.3
2017-10-14T23:34:50.000Z,21.3
2017-10-14T23:44:50.000Z,21.1
2017-10-14T23:54:50.000Z,20.8
